createdAt,value
2023-02-01T00:00:02.967Z,3.04
2023-02-01T00:02:32.721Z,2.69
2023-02-01T00:05:00.238Z,2.68
2023-02-01T00:07:27.475Z,2.66
2023-02-01T00:09:54.850Z,2.97
2023-02-01T00:12:22.176Z,3.02
2023-02-01T00:14:49.473Z,3.08
2023-02-01T00:17:16.774Z,3.11
2023-02-01T00:19:44.052Z,3.13
2023-02-01T00:22:11.405Z,3.13
2023-02-01T00:24:38.752Z,3.07
2023-02-01T00:27:06.062Z,3.08
2023-02-01T00:29:33.384Z,2.97
2023-02-01T00:32:00.867Z,2.93
2023-02-01T00:34:28.930Z,2.91
2023-02-01T00:36:56.258Z,2.88
2023-02-01T00:39:23.568Z,2.83
2023-02-01T00:41:50.889Z,2.77
2023-02-01T00:44:18.117Z,2.74
2023-02-01T00:46:45.559Z,2.66
2023-02-01T00:49:12.883Z,2.65
2023-02-01T00:51:40.150Z,2.59
2023-02-01T00:54:07.433Z,2.50
2023-02-01T00:56:34.715Z,2.38
2023-02-01T00:59:01.981Z,2.50
2023-02-01T01:01:29.576Z,2.46
2023-02-01T01:04:00.152Z,2.39
2023-02-01T01:06:31.889Z,2.12
2023-02-01T01:09:01.755Z,2.10
2023-02-01T01:11:31.971Z,2.01
2023-02-01T01:14:00.742Z,2.07
2023-02-01T01:16:29.810Z,2.22
2023-02-01T01:18:58.138Z,2.06
2023-02-01T01:21:26.218Z,2.12
2023-02-01T01:23:54.131Z,2.27
2023-02-01T01:26:24.520Z,1.93
2023-02-01T01:28:52.943Z,2.01
2023-02-01T01:31:21.656Z,2.06
2023-02-01T01:33:54.067Z,1.91
2023-02-01T01:36:21.794Z,2.10
2023-02-01T01:38:49.482Z,1.96
2023-02-01T01:41:22.886Z,1.87
2023-02-01T01:43:58.163Z,1.96
2023-02-01T01:46:32.037Z,2.04
2023-02-01T01:49:05.549Z,1.97
2023-02-01T01:51:41.641Z,1.76
2023-02-01T01:54:22.524Z,1.72
2023-02-01T01:56:54.661Z,1.89
2023-02-01T01:59:25.195Z,1.88
2023-02-01T02:01:53.407Z,1.79
2023-02-01T02:04:20.986Z,1.68
2023-02-01T02:06:58.463Z,1.58
2023-02-01T02:09:25.821Z,1.59
2023-02-01T02:11:53.212Z,1.64
2023-02-01T02:14:24.117Z,1.75
2023-02-01T02:17:22.845Z,1.90
2023-02-01T02:20:11.727Z,1.70
2023-02-01T02:22:40.063Z,1.34
2023-02-01T02:25:40.003Z,1.67
2023-02-01T02:28:19.661Z,1.49
2023-02-01T02:31:08.447Z,1.47
2023-02-01T02:34:12.524Z,1.59
2023-02-01T02:37:11.907Z,1.71
2023-02-01T02:40:08.149Z,1.51
2023-02-01T02:43:15.285Z,1.73
2023-02-01T02:46:14.902Z,1.71
2023-02-01T02:49:06.378Z,1.55
2023-02-01T02:51:59.875Z,1.68
2023-02-01T02:54:51.845Z,1.70
2023-02-01T02:57:45.167Z,1.57
2023-02-01T03:00:36.330Z,1.44
2023-02-01T03:03:26.659Z,1.50
2023-02-01T03:05:54.295Z,1.59
2023-02-01T03:08:26.712Z,1.60
2023-02-01T03:11:15.217Z,1.52
2023-02-01T03:13:52.888Z,1.60
2023-02-01T03:16:36.659Z,1.60
2023-02-01T03:19:11.166Z,1.46
2023-02-01T03:21:44.528Z,1.52
2023-02-01T03:24:18.715Z,1.54
2023-02-01T03:26:55.639Z,1.43
2023-02-01T03:29:30.585Z,1.52
2023-02-01T03:31:58.101Z,1.57
2023-02-01T03:34:25.699Z,1.41
2023-02-01T03:37:03.639Z,1.43
2023-02-01T03:39:56.192Z,1.52
2023-02-01T03:42:39.871Z,1.44
2023-02-01T03:45:21.994Z,1.52
2023-02-01T03:47:54.539Z,1.41
2023-02-01T03:50:25.049Z,1.59
2023-02-01T03:53:10.351Z,1.53
2023-02-01T03:55:38.213Z,1.54
2023-02-01T03:58:12.160Z,1.64
2023-02-01T04:00:40.340Z,1.41
2023-02-01T04:03:13.149Z,1.47
2023-02-01T04:05:40.560Z,1.50
2023-02-01T04:08:09.415Z,1.49
2023-02-01T04:10:36.727Z,1.23
2023-02-01T04:13:04.179Z,1.12
2023-02-01T04:15:31.459Z,1.43
2023-02-01T04:17:58.782Z,1.33
2023-02-01T04:20:26.423Z,1.47
2023-02-01T04:22:53.820Z,1.24
2023-02-01T04:25:21.640Z,1.29
2023-02-01T04:27:49.175Z,1.43
2023-02-01T04:30:16.875Z,1.41
2023-02-01T04:32:44.294Z,1.57
2023-02-01T04:35:12.784Z,1.56
2023-02-01T04:37:40.107Z,1.50
2023-02-01T04:40:08.098Z,1.39
2023-02-01T04:42:35.376Z,1.54
2023-02-01T04:45:03.082Z,1.47
2023-02-01T04:47:30.854Z,1.42
2023-02-01T04:49:58.275Z,1.27
2023-02-01T04:52:25.551Z,1.11
2023-02-01T04:54:55.411Z,1.16
2023-02-01T04:57:23.167Z,1.17
2023-02-01T04:59:50.655Z,1.21
2023-02-01T05:02:18.185Z,1.24
2023-02-01T05:04:45.819Z,1.26
2023-02-01T05:07:13.416Z,1.15
2023-02-01T05:09:40.770Z,1.14
2023-02-01T05:12:29.180Z,1.08
2023-02-01T05:14:56.502Z,0.99
2023-02-01T05:17:23.924Z,1.07
2023-02-01T05:19:51.246Z,1.11
2023-02-01T05:22:18.820Z,0.96
2023-02-01T05:24:46.197Z,0.99
2023-02-01T05:27:13.592Z,1.07
2023-02-01T05:29:40.931Z,1.26
2023-02-01T05:32:21.760Z,1.25
2023-02-01T05:34:50.468Z,1.22
2023-02-01T05:37:17.855Z,1.26
2023-02-01T05:39:45.180Z,1.11
2023-02-01T05:42:12.573Z,1.16
2023-02-01T05:44:39.995Z,1.24
2023-02-01T05:47:07.502Z,1.22
2023-02-01T05:49:34.858Z,0.80
2023-02-01T05:52:02.581Z,0.91
2023-02-01T05:54:30.003Z,0.92
2023-02-01T05:56:57.325Z,0.88
2023-02-01T05:59:24.871Z,0.91
2023-02-01T06:01:52.286Z,0.92
2023-02-01T06:04:19.603Z,0.89
2023-02-01T06:06:46.932Z,0.77
2023-02-01T06:09:14.186Z,0.89
2023-02-01T06:11:42.368Z,0.83
2023-02-01T06:14:09.665Z,0.90
2023-02-01T06:16:36.930Z,0.93
2023-02-01T06:19:04.342Z,1.02
2023-02-01T06:21:31.663Z,1.11
2023-02-01T06:23:59.298Z,1.22
2023-02-01T06:26:26.937Z,1.26
2023-02-01T06:28:54.228Z,1.31
2023-02-01T06:31:22.214Z,1.30
2023-02-01T06:33:49.841Z,1.30
2023-02-01T06:36:17.300Z,1.39
2023-02-01T06:38:44.663Z,1.34
2023-02-01T06:41:12.142Z,1.22
2023-02-01T06:43:39.615Z,1.06
2023-02-01T06:46:13.047Z,1.11
2023-02-01T06:48:40.403Z,1.15
2023-02-01T06:51:19.877Z,1.01
2023-02-01T06:53:47.243Z,0.70
2023-02-01T06:56:14.581Z,0.86
2023-02-01T06:58:41.932Z,0.95
2023-02-01T07:01:10.983Z,0.95
2023-02-01T07:04:11.186Z,1.02
2023-02-01T07:06:39.364Z,1.04
2023-02-01T07:09:07.296Z,0.71
2023-02-01T07:11:35.214Z,0.89
2023-02-01T07:14:02.577Z,0.95
2023-02-01T07:16:30.141Z,1.02
2023-02-01T07:18:57.551Z,0.91
2023-02-01T07:21:24.881Z,0.78
2023-02-01T07:23:52.268Z,0.92
2023-02-01T07:26:19.687Z,1.04
2023-02-01T07:28:47.888Z,1.23
2023-02-01T07:31:19.910Z,1.44
2023-02-01T07:33:47.993Z,1.38
2023-02-01T07:36:17.852Z,1.50
2023-02-01T07:38:45.773Z,1.61
2023-02-01T07:41:13.103Z,1.54
2023-02-01T07:43:40.896Z,1.60
2023-02-01T07:46:08.586Z,1.60
2023-02-01T07:48:36.000Z,1.76
2023-02-01T07:51:10.256Z,1.65
2023-02-01T07:53:38.047Z,1.51
2023-02-01T07:56:12.420Z,1.58
2023-02-01T07:58:39.782Z,1.58
2023-02-01T08:01:22.278Z,1.73
2023-02-01T08:03:52.007Z,1.84
2023-02-01T08:06:20.693Z,1.90
2023-02-01T08:08:49.537Z,1.89
2023-02-01T08:11:18.502Z,2.01
2023-02-01T08:13:46.369Z,2.09
2023-02-01T08:16:15.497Z,2.14
2023-02-01T08:18:44.015Z,2.30
2023-02-01T08:21:19.522Z,2.51
2023-02-01T08:23:47.197Z,2.52
2023-02-01T08:26:26.685Z,2.51
2023-02-01T08:28:59.431Z,2.66
2023-02-01T08:31:29.027Z,2.58
2023-02-01T08:33:59.227Z,2.63
2023-02-01T08:36:28.229Z,2.78
2023-02-01T08:38:55.936Z,2.81
2023-02-01T08:41:28.471Z,3.04
2023-02-01T08:43:56.772Z,2.99
2023-02-01T08:46:24.811Z,3.24
2023-02-01T08:48:52.850Z,3.54
2023-02-01T08:51:22.572Z,4.23
2023-02-01T08:53:51.014Z,5.27
2023-02-01T08:56:20.203Z,5.72
2023-02-01T08:58:47.579Z,5.77
2023-02-01T09:01:17.957Z,6.14
2023-02-01T09:03:49.487Z,6.42
2023-02-01T09:06:17.230Z,6.10
2023-02-01T09:08:44.870Z,5.86
2023-02-01T09:11:17.658Z,5.72
2023-02-01T09:13:45.573Z,5.66
2023-02-01T09:16:13.771Z,5.73
2023-02-01T09:18:50.578Z,5.53
2023-02-01T09:21:23.944Z,5.55
2023-02-01T09:23:52.642Z,5.53
2023-02-01T09:26:26.590Z,5.46
2023-02-01T09:28:59.331Z,5.48
2023-02-01T09:31:26.755Z,5.65
2023-02-01T09:33:54.213Z,5.77
2023-02-01T09:36:21.770Z,5.84
2023-02-01T09:38:53.129Z,5.93
2023-02-01T09:41:39.436Z,5.99
2023-02-01T09:44:44.128Z,5.93
2023-02-01T09:47:14.712Z,5.87
2023-02-01T09:49:52.369Z,5.70
2023-02-01T09:52:29.317Z,6.02
2023-02-01T09:55:03.795Z,6.05
2023-02-01T09:57:46.318Z,6.08
2023-02-01T10:00:23.703Z,5.94
2023-02-01T10:02:51.714Z,5.92
2023-02-01T10:05:42.994Z,5.97
2023-02-01T10:08:21.275Z,5.94
2023-02-01T10:10:50.870Z,5.84
2023-02-01T10:13:45.030Z,5.92
2023-02-01T10:16:31.464Z,6.09
2023-02-01T10:19:05.841Z,6.17
2023-02-01T10:21:48.386Z,6.28
2023-02-01T10:24:37.199Z,6.34
2023-02-01T10:27:26.001Z,6.32
2023-02-01T10:29:59.441Z,6.33
2023-02-01T10:32:35.872Z,6.44
2023-02-01T10:35:14.251Z,6.64
2023-02-01T10:37:44.054Z,6.50
2023-02-01T10:40:23.210Z,6.42
2023-02-01T10:42:53.605Z,6.54
2023-02-01T10:45:24.090Z,6.52
2023-02-01T10:47:53.568Z,6.44
2023-02-01T10:50:37.231Z,6.81
2023-02-01T10:53:07.652Z,6.81
2023-02-01T10:55:39.352Z,6.64
2023-02-01T10:58:45.044Z,6.76
2023-02-01T11:01:20.684Z,6.66
2023-02-01T11:04:05.734Z,6.64
2023-02-01T11:06:45.169Z,6.67
2023-02-01T11:09:21.621Z,6.88
2023-02-01T11:11:48.975Z,6.93
2023-02-01T11:14:19.611Z,6.86
2023-02-01T11:17:01.531Z,6.80
2023-02-01T11:19:30.046Z,6.89
2023-02-01T11:22:00.389Z,6.93
2023-02-01T11:24:36.618Z,7.12
2023-02-01T11:27:07.197Z,6.84
2023-02-01T11:29:42.237Z,6.95
2023-02-01T11:32:13.216Z,7.09
2023-02-01T11:34:49.919Z,7.13
2023-02-01T11:37:20.067Z,7.13
2023-02-01T11:39:59.346Z,7.20
2023-02-01T11:42:29.214Z,7.10
2023-02-01T11:45:20.167Z,7.12
2023-02-01T11:47:52.638Z,7.09
2023-02-01T11:50:43.557Z,7.13
2023-02-01T11:53:21.078Z,7.13
2023-02-01T11:56:00.369Z,7.12
2023-02-01T11:59:04.925Z,7.43
2023-02-01T12:01:50.400Z,7.26
2023-02-01T12:05:07.360Z,7.30
2023-02-01T12:07:52.292Z,7.34
2023-02-01T12:10:38.457Z,7.44
2023-02-01T12:13:24.494Z,7.44
2023-02-01T12:16:13.188Z,7.38
2023-02-01T12:19:23.299Z,7.37
2023-02-01T12:22:11.736Z,7.38
2023-02-01T12:25:12.644Z,7.36
2023-02-01T12:28:02.036Z,7.63
2023-02-01T12:30:29.325Z,7.61
2023-02-01T12:33:25.313Z,7.59
2023-02-01T12:36:02.089Z,7.73
2023-02-01T12:38:41.245Z,7.68
2023-02-01T12:41:11.403Z,7.66
2023-02-01T12:43:41.469Z,7.72
2023-02-01T12:46:23.447Z,7.71
2023-02-01T12:48:59.515Z,7.79
2023-02-01T12:51:34.005Z,8.03
2023-02-01T12:54:10.616Z,8.07
2023-02-01T12:56:56.748Z,7.90
2023-02-01T12:59:35.844Z,7.88
2023-02-01T13:02:34.220Z,8.02
2023-02-01T13:05:07.629Z,7.94
2023-02-01T13:08:08.826Z,7.88
2023-02-01T13:10:44.713Z,7.84
2023-02-01T13:13:18.367Z,8.08
2023-02-01T13:15:50.664Z,8.06
2023-02-01T13:18:21.659Z,8.05
2023-02-01T13:21:17.118Z,8.23
2023-02-01T13:23:47.933Z,8.08
2023-02-01T13:26:15.833Z,8.09
2023-02-01T13:28:48.487Z,8.16
2023-02-01T13:31:40.609Z,8.21
2023-02-01T13:34:45.720Z,8.38
2023-02-01T13:37:27.064Z,8.23
2023-02-01T13:40:32.003Z,8.19
2023-02-01T13:43:09.312Z,8.13
2023-02-01T13:45:43.545Z,8.12
2023-02-01T13:48:21.839Z,8.19
2023-02-01T13:50:54.444Z,8.26
2023-02-01T13:53:34.916Z,8.33
2023-02-01T13:56:08.113Z,8.49
2023-02-01T13:58:41.786Z,8.44
2023-02-01T14:01:22.717Z,8.50
2023-02-01T14:03:58.384Z,8.47
2023-02-01T14:06:28.846Z,8.48
2023-02-01T14:09:14.281Z,8.38
2023-02-01T14:11:48.191Z,8.41
2023-02-01T14:14:15.534Z,8.53
2023-02-01T14:16:44.128Z,8.44
2023-02-01T14:19:34.420Z,8.36
2023-02-01T14:22:21.688Z,8.40
2023-02-01T14:24:55.192Z,8.41
2023-02-01T14:27:29.283Z,8.42
2023-02-01T14:30:03.806Z,8.53
2023-02-01T14:32:42.699Z,8.60
2023-02-01T14:35:22.135Z,8.50
2023-02-01T14:37:53.898Z,8.54
2023-02-01T14:40:26.206Z,8.54
2023-02-01T14:42:54.886Z,8.55
2023-02-01T14:45:26.103Z,8.67
2023-02-01T14:48:16.514Z,8.73
2023-02-01T14:50:49.129Z,8.77
2023-02-01T14:53:25.729Z,8.87
2023-02-01T14:56:07.359Z,9.06
2023-02-01T14:58:46.374Z,9.00
2023-02-01T15:01:25.020Z,9.10
2023-02-01T15:04:01.555Z,9.05
2023-02-01T15:06:32.018Z,8.92
2023-02-01T15:09:05.351Z,9.05
2023-02-01T15:11:32.953Z,9.00
2023-02-01T15:14:01.625Z,8.85
2023-02-01T15:16:29.002Z,8.81
2023-02-01T15:19:11.050Z,8.75
2023-02-01T15:21:47.781Z,8.65
2023-02-01T15:24:21.573Z,8.63
2023-02-01T15:26:49.691Z,8.55
2023-02-01T15:29:18.391Z,8.49
2023-02-01T15:31:51.795Z,8.47
2023-02-01T15:34:20.807Z,8.37
2023-02-01T15:37:01.899Z,8.44
2023-02-01T15:39:32.422Z,8.37
2023-02-01T15:42:10.016Z,8.31
2023-02-01T15:44:47.261Z,8.27
2023-02-01T15:47:21.500Z,8.23
2023-02-01T15:49:54.862Z,8.20
2023-02-01T15:52:27.003Z,8.17
2023-02-01T15:55:33.726Z,8.16
2023-02-01T15:58:01.497Z,8.10
2023-02-01T16:00:34.682Z,8.03
2023-02-01T16:03:05.893Z,8.03
2023-02-01T16:05:40.907Z,7.94
2023-02-01T16:08:16.123Z,7.92
2023-02-01T16:10:46.737Z,7.84
2023-02-01T16:13:15.795Z,7.77
2023-02-01T16:15:43.991Z,7.78
2023-02-01T16:18:13.335Z,7.65
2023-02-01T16:20:42.502Z,7.65
2023-02-01T16:23:11.602Z,7.63
2023-02-01T16:25:40.229Z,7.55
2023-02-01T16:28:07.984Z,7.58
2023-02-01T16:30:35.713Z,7.56
2023-02-01T16:33:03.673Z,7.53
2023-02-01T16:35:36.752Z,7.50
2023-02-01T16:38:09.838Z,7.43
2023-02-01T16:40:37.923Z,7.34
2023-02-01T16:43:23.020Z,7.27
2023-02-01T16:45:52.660Z,7.28
2023-02-01T16:48:49.627Z,7.31
2023-02-01T16:51:17.858Z,7.36
2023-02-01T16:53:54.166Z,7.33
2023-02-01T16:56:25.931Z,7.23
2023-02-01T16:58:55.233Z,7.16
2023-02-01T17:01:23.390Z,7.17
2023-02-01T17:03:51.141Z,7.18
2023-02-01T17:06:21.715Z,7.05
2023-02-01T17:08:52.536Z,7.10
2023-02-01T17:11:19.892Z,7.06
2023-02-01T17:13:47.899Z,7.01
2023-02-01T17:16:32.221Z,6.99
2023-02-01T17:19:03.357Z,6.94
2023-02-01T17:21:38.099Z,6.90
2023-02-01T17:24:05.755Z,6.81
2023-02-01T17:26:33.166Z,6.75
2023-02-01T17:29:00.580Z,6.82
2023-02-01T17:31:28.773Z,6.77
2023-02-01T17:33:56.814Z,6.81
2023-02-01T17:36:24.155Z,6.66
2023-02-01T17:39:04.703Z,6.65
2023-02-01T17:41:33.929Z,6.65
2023-02-01T17:44:01.571Z,6.57
2023-02-01T17:46:30.673Z,6.44
2023-02-01T17:48:59.163Z,6.44
2023-02-01T17:51:28.370Z,6.55
2023-02-01T17:53:55.897Z,6.51
2023-02-01T17:56:24.927Z,6.44
2023-02-01T17:58:52.464Z,6.25
2023-02-01T18:01:22.459Z,6.25
2023-02-01T18:03:50.991Z,6.29
2023-02-01T18:06:23.143Z,6.30
2023-02-01T18:08:51.267Z,6.31
2023-02-01T18:11:21.370Z,6.14
2023-02-01T18:13:50.267Z,6.21
2023-02-01T18:16:22.372Z,6.28
2023-02-01T18:18:50.677Z,6.25
2023-02-01T18:21:21.204Z,6.24
2023-02-01T18:23:49.694Z,6.24
2023-02-01T18:26:18.625Z,6.20
2023-02-01T18:28:46.136Z,6.21
2023-02-01T18:31:34.842Z,6.06
2023-02-01T18:34:03.214Z,6.00
2023-02-01T18:36:30.631Z,6.03
2023-02-01T18:38:58.138Z,6.17
2023-02-01T18:41:26.062Z,6.05
2023-02-01T18:43:53.860Z,6.02
2023-02-01T18:46:24.106Z,6.04
2023-02-01T18:48:51.547Z,5.99
2023-02-01T18:51:20.330Z,6.10
2023-02-01T18:53:48.600Z,5.85
2023-02-01T18:56:20.839Z,5.56
2023-02-01T18:58:48.291Z,5.52
2023-02-01T19:01:21.670Z,5.54
2023-02-01T19:03:55.762Z,5.59
2023-02-01T19:06:30.338Z,5.59
2023-02-01T19:08:57.730Z,5.54
2023-02-01T19:11:25.068Z,5.44
2023-02-01T19:13:52.458Z,5.13
2023-02-01T19:16:19.804Z,5.05
2023-02-01T19:18:52.087Z,4.99
2023-02-01T19:21:19.614Z,5.06
2023-02-01T19:23:47.036Z,5.32
2023-02-01T19:26:17.227Z,5.37
2023-02-01T19:28:47.828Z,5.36
2023-02-01T19:31:16.482Z,5.52
2023-02-01T19:33:43.956Z,5.41
2023-02-01T19:36:11.394Z,5.20
2023-02-01T19:38:40.261Z,5.24
2023-02-01T19:41:07.735Z,5.29
2023-02-01T19:43:36.758Z,5.43
2023-02-01T19:46:04.494Z,5.55
2023-02-01T19:48:31.997Z,5.53
2023-02-01T19:50:59.568Z,5.47
2023-02-01T19:53:28.060Z,5.47
2023-02-01T19:55:57.331Z,5.56
2023-02-01T19:58:25.773Z,5.58
2023-02-01T20:00:57.086Z,5.62
2023-02-01T20:03:24.875Z,5.66
2023-02-01T20:05:53.383Z,5.50
2023-02-01T20:08:21.253Z,5.25
2023-02-01T20:10:49.240Z,5.40
2023-02-01T20:13:17.193Z,5.50
2023-02-01T20:15:44.835Z,5.19
2023-02-01T20:18:12.527Z,5.27
2023-02-01T20:20:41.417Z,5.06
2023-02-01T20:23:09.145Z,5.12
2023-02-01T20:25:38.205Z,5.02
2023-02-01T20:28:05.806Z,5.05
2023-02-01T20:30:33.373Z,4.99
2023-02-01T20:33:00.860Z,5.05
2023-02-01T20:35:29.183Z,4.85
2023-02-01T20:37:58.995Z,4.67
2023-02-01T20:40:26.451Z,4.62
2023-02-01T20:42:54.319Z,4.45
2023-02-01T20:45:21.970Z,4.45
2023-02-01T20:47:52.958Z,4.41
2023-02-01T20:50:20.354Z,4.39
2023-02-01T20:52:47.697Z,4.40
2023-02-01T20:55:15.077Z,4.31
2023-02-01T20:57:42.577Z,4.25
2023-02-01T21:00:10.628Z,4.38
2023-02-01T21:02:38.452Z,4.36
2023-02-01T21:05:06.221Z,4.12
2023-02-01T21:07:33.712Z,4.17
2023-02-01T21:10:01.023Z,4.31
2023-02-01T21:12:28.317Z,4.31
2023-02-01T21:14:55.619Z,4.18
2023-02-01T21:17:23.282Z,4.19
2023-02-01T21:19:50.572Z,4.20
2023-02-01T21:22:17.876Z,4.18
2023-02-01T21:24:45.704Z,4.18
2023-02-01T21:27:13.427Z,4.09
2023-02-01T21:29:40.738Z,4.03
2023-02-01T21:32:09.360Z,3.98
2023-02-01T21:34:36.755Z,3.97
2023-02-01T21:37:04.058Z,3.93
2023-02-01T21:39:31.523Z,3.94
2023-02-01T21:42:13.978Z,3.79
2023-02-01T21:44:42.289Z,3.81
2023-02-01T21:47:14.424Z,3.70
2023-02-01T21:49:41.778Z,3.66
2023-02-01T21:52:09.777Z,3.62
2023-02-01T21:54:38.901Z,3.58
2023-02-01T21:57:12.088Z,3.71
2023-02-01T21:59:40.946Z,3.58
2023-02-01T22:02:16.478Z,3.38
2023-02-01T22:04:44.692Z,3.38
2023-02-01T22:07:12.383Z,3.48
2023-02-01T22:09:39.957Z,3.36
2023-02-01T22:12:12.398Z,3.12
2023-02-01T22:14:40.757Z,3.08
2023-02-01T22:17:08.113Z,3.29
2023-02-01T22:19:35.761Z,3.40
2023-02-01T22:22:03.177Z,3.48
2023-02-01T22:24:30.444Z,3.52
2023-02-01T22:27:13.353Z,3.50
2023-02-01T22:29:43.377Z,3.41
2023-02-01T22:32:13.264Z,3.46
2023-02-01T22:34:40.669Z,3.34
2023-02-01T22:37:07.943Z,3.43
2023-02-01T22:39:35.224Z,3.40
2023-02-01T22:42:03.518Z,3.38
2023-02-01T22:44:30.840Z,3.43
2023-02-01T22:46:58.590Z,3.45
2023-02-01T22:49:25.886Z,3.37
2023-02-01T22:51:53.150Z,3.39
2023-02-01T22:54:21.475Z,3.40
2023-02-01T22:56:49.494Z,3.38
2023-02-01T22:59:17.233Z,3.41
2023-02-01T23:01:44.624Z,3.39
2023-02-01T23:04:14.545Z,3.31
2023-02-01T23:06:42.177Z,3.14
2023-02-01T23:09:18.597Z,2.75
2023-02-01T23:11:46.619Z,2.67
2023-02-01T23:14:14.970Z,2.83
2023-02-01T23:16:44.864Z,2.95
2023-02-01T23:19:12.321Z,2.98
2023-02-01T23:21:39.756Z,2.71
2023-02-01T23:24:08.270Z,2.57
2023-02-01T23:26:35.900Z,2.86
2023-02-01T23:29:03.823Z,2.67
2023-02-01T23:31:34.165Z,2.79
2023-02-01T23:34:02.728Z,3.03
2023-02-01T23:36:31.930Z,2.74
2023-02-01T23:39:00.332Z,2.79
2023-02-01T23:41:30.043Z,2.53
2023-02-01T23:44:01.050Z,2.75
2023-02-01T23:46:37.862Z,2.75
2023-02-01T23:49:07.496Z,2.75
2023-02-01T23:51:35.886Z,2.84
2023-02-01T23:54:03.981Z,2.92
2023-02-01T23:56:34.541Z,2.97
2023-02-01T23:59:04.134Z,2.85
